KRSWKEYW

Guest
Details From KRSW - Southwest Florida Intl
To KEYW - Key West Intl
Flight Number -
Tags generated
Created
Modified
Stats Distance 119 nm / 220 km
Max Altitude 8,200 ft / 2,499 m
Waypoints 3
Social Downloads 3
Likes 0
Share VATSIM

Download

Looking for another format? Having issues loading an existing format? Contact us
Advertisement - Login to hide

Notes

Basic altitude profile: - Ascent Rate: 2500ft/min - Ascent Speed: 250kts - Cruise Altitude: 35000ft - Cruise Speed: 420kts - Descent Rate: 1500ft/min - Descent Speed: 250kts Options: - Use NATs: yes - Use PACOTS: yes - Use low airways: yes - Use high airways: yes

Route

KRSW CYY KEYW

ID Type Via Altitude Latitude Longitude Leg Dist Tot Dist Heading (true) Name
O KRSW APT - 0 ft / 0 m 26.53616˚ -81.75515˚ - 0 nm - Southwest Florida Intl
CYY VOR - 8,200 ft / 2,499 m 26.15342˚ -81.77811˚ 23 nm 23 nm 183° / 183° CYPRESS VOR-DME
O KEYW APT - 0 ft / 0 m 24.55612˚ -81.75955˚ 95 nm 118 nm 179° / 179° Key West Intl

Altitude Profile

Advertisement - Login to hide

KRSW

Details ICAO KRSW (RSW)
Name Southwest Florida Intl
Region United States
Timezone America/New_York (UTC-4.0)
Stats Elevation 30 ft / 9 m (AMSL)
Location 26.536162° -81.755152°
Runways 1
Magnetic Variation 5.886° W

METAR

KRSW 262300Z 07015KT 10SM -RA SCT008 BKN017 OVC044 19/19 A2985 RMK AO2 P0000 T01890189

Decode

TAF

TAF KRSW 262344Z 2700/2724 08015KT P6SM VCSH SCT008 BKN045 OVC070 TEMPO 2700/2703 3SM SHRA BKN015 OVC040 FM270300 09015KT 6SM -SHRA BKN015 OVC040 FM270700 12016G24KT 6SM SHRA VCTS SCT007 BKN015CB OVC040 FM271300 15018G26KT 6SM SHRA VCTS BKN010 OVC025CB FM271700 18024G31KT 6SM SHRA VCTS SCT015 OVC025CB

Decode

Departure Runways

ID Width Length Bearing (true) Bearing (mag) Surface Threshold Offset Overrun Length
06 150 ft / 46 m 12,004 ft / 3,659 m 53.96° 59.85° Asphalt 0 ft / 0 m 0 ft / 0 m
24 150 ft / 46 m 12,004 ft / 3,659 m 233.97° 239.86° Asphalt 0 ft / 0 m 0 ft / 0 m

KEYW

Details ICAO KEYW (EYW)
Name Key West Intl
Region United States
Timezone America/New_York (UTC-4.0)
Stats Elevation 2 ft / 1 m (AMSL)
Location 24.556124° -81.759546°
Runways 1
Magnetic Variation 5.594° W

METAR

KEYW 262319Z 13028G37KT 2 1/2SM RA BR SCT014 BKN030 OVC065 24/24 A2975 RMK AO2 PK WND 13037/2318 P0001 T02440239

Decode

TAF

KEYW 262337Z 2700/2724 13023G36KT P6SM -RA VCSH SCT020 BKN030 OVC060 TEMPO 2700/2703 2SM +SHRA BKN015 OVC030 FM270300 15025G34KT 3SM RA VCTS SCT010CB BKN030 OVC060 TEMPO 2703/2706 1SM +TSRA BKN010CB OVC025 FM270900 18030G39KT 5SM -RA SCT012 OVC025 FM271500 17020G27KT P6SM VCSH SCT015 BKN050

Decode

Destination Runways

ID Width Length Bearing (true) Bearing (mag) Surface Threshold Offset Overrun Length
09 100 ft / 30 m 4,794 ft / 1,461 m 89.38° 94.97° Asphalt 151 ft / 46 m 0 ft / 0 m
27 100 ft / 30 m 4,794 ft / 1,461 m 269.39° 274.98° Asphalt 151 ft / 46 m 0 ft / 0 m

Popular Alternatives